Date,TemperatureHighF,TemperatureAvgF,TemperatureLowF,DewpointHighF,DewpointAvgF,DewpointLowF,HumidityHigh,HumidityAvg,HumidityLow,PressureMaxIn,PressureMinIn,WindSpeedMaxMPH,WindSpeedAvgMPH,GustSpeedMaxMPH,PrecipitationSumIn
2013-1-1,78,62,49,58,20,-5,52,19,1,30.13,29.95,3,0,5,0.00
2013-1-2,81,67,52,61,20,-3,51,15,1,29.97,29.88,3,0,5,0.00
2013-1-3,73,63,57,26,6,1,18,2,1,30.09,29.95,7,1,7,0.07
2013-1-5,75,63,53,56,18,-2,53,16,1,30.21,30.09,6,1,6,0.88
2013-1-6,81,69,59,62,23,2,51,16,1,30.13,29.96,4,0,4,0.03
2013-1-7,71,62,54,53,17,-2,52,16,1,30.13,30.05,7,1,8,0.15
2013-1-8,79,73,67,52,18,9,39,7,1,30.12,30.05,5,0,5,0.02
2013-1-9,77,72,67,16,13,9,1,1,1,30.20,30.11,1,0,1,0.56
2013-1-10,83,72,62,64,32,5,54,25,1,30.19,30.13,3,0,4,0.02
2013-1-11,83,73,62,64,34,5,54,27,1,30.13,30.07,2,0,2,0.00
2013-1-12,62,53,0,5,4,0,29,5,1,30.10,30.06,54,8,54,0.00
2013-1-17,0,0,0,0,0,0,0,0,100,29.95,29.85,0,0,0,3.27
2013-1-18,0,0,0,0,0,0,0,0,100,30.18,30.11,0,0,0,3.27
2013-1-19,76,41,0,0,0,0,0,0,100,30.18,29.77,8,1,8,0.00
2013-1-20,72,29,0,50,5,0,50,5,1,29.81,29.69,5,0,5,0.00
2013-1-21,75,63,56,56,20,0,52,19,1,29.72,29.62,2,0,2,0.00
2013-1-22,65,56,45,47,34,1,57,44,1,29.90,29.69,6,1,6,0.00
2013-1-23,70,52,38,46,18,-14,55,28,1,29.99,29.89,4,0,4,0.00
2013-1-24,75,55,40,52,18,-12,53,24,1,29.95,29.84,3,0,3,0.00
2013-1-25,77,58,45,54,18,-8,53,21,1,29.93,29.80,2,0,2,0.00
2013-1-26,78,58,43,56,16,-10,51,18,1,29.89,29.78,4,0,4,0.00
2013-1-27,80,63,49,59,18,-5,51,16,1,29.94,29.85,6,0,6,0.00
2013-1-28,78,67,58,56,19,2,46,13,1,29.97,29.87,2,0,2,0.00
2013-1-29,84,70,60,63,22,3,49,14,1,29.89,29.74,2,0,2,0.00
2013-1-30,85,72,61,63,31,4,50,22,1,29.75,29.51,6,1,6,0.00
2013-1-31,69,58,44,41,22,-2,55,27,1,29.85,29.52,4,1,4,0.17
2013-2-1,72,51,35,40,23,-14,54,36,1,29.98,29.85,3,0,3,0.00
2013-2-2,75,53,36,44,18,-16,53,27,1,29.93,29.77,4,0,4,0.00
2013-2-3,72,54,37,51,19,-15,53,26,1,29.81,29.68,5,1,5,0.00
2013-2-4,74,53,36,42,16,-15,52,24,1,29.77,29.66,2,0,2,0.00
2013-2-5,79,57,38,54,17,-13,51,21,1,29.73,29.62,2,0,2,0.00
2013-2-6,78,65,55,57,15,0,48,10,1,29.74,29.66,3,0,3,0.00
2013-2-7,83,70,57,61,27,1,49,20,1,29.71,29.50,4,0,4,0.00
2013-2-8,83,69,58,60,26,2,51,19,1,29.72,29.49,5,1,5,0.00
2013-2-9,77,62,52,56,17,-3,50,16,1,29.84,29.70,8,1,8,0.00
2013-2-10,77,63,52,55,19,-3,47,17,1,29.90,29.80,4,0,4,0.00
2013-2-11,85,68,54,62,23,-1,48,17,1,29.84,29.70,4,0,4,0.00
2013-2-12,87,71,60,64,24,3,49,15,1,29.73,29.55,5,1,5,0.00
2013-2-13,87,73,64,64,20,6,47,9,1,29.59,29.44,7,1,7,0.81
2013-2-14,67,63,58,8,5,1,1,1,1,29.67,29.55,3,0,3,0.52
2013-2-15,70,59,52,47,7,-3,45,7,1,29.71,29.58,2,0,2,0.04
2013-2-16,71,56,48,46,21,-6,53,27,1,29.74,29.52,5,2,5,0.00
2013-2-17,59,44,32,28,21,12,58,41,18,29.96,29.75,6,1,6,0.00
2013-2-18,70,48,29,46,15,-21,51,28,1,30.00,29.84,7,1,7,0.00
2013-2-19,80,60,43,56,18,-10,49,18,1,29.85,29.68,6,1,6,0.00
2013-2-20,78,63,55,56,18,-1,47,16,1,29.77,29.65,5,1,5,0.00
2013-2-21,86,67,54,62,16,-2,47,10,1,29.74,29.63,4,0,4,0.00
2013-2-22,89,72,60,65,22,3,46,11,1,29.72,29.62,3,0,3,0.00
2013-2-23,89,76,70,66,28,11,47,15,1,29.64,29.49,4,1,4,0.00
2013-2-24,76,70,66,16,11,8,1,1,1,29.60,29.49,4,0,4,2.08
2013-2-25,84,72,64,55,17,6,39,6,1,29.56,29.39,2,0,2,1.08
2013-2-26,76,69,62,15,10,5,1,1,1,29.48,29.38,3,0,3,1.00
2013-2-27,77,66,54,56,25,-1,50,21,1,29.60,29.48,4,1,4,0.00
2013-2-28,78,60,45,53,23,-8,52,25,1,29.62,29.49,5,1,5,0.00
2013-3-1,67,56,47,41,22,-7,53,30,1,29.62,29.53,0,0,0,0.00
2013-3-2,62,51,41,38,31,18,57,48,31,29.65,29.56,0,0,0,0.00
2013-3-3,56,44,34,34,23,-8,55,44,16,29.77,29.62,0,0,0,0.00
2013-3-4,71,48,30,36,17,-20,54,31,1,29.86,29.74,0,0,0,0.00
2013-3-5,80,59,37,49,22,-14,51,24,1,29.81,29.64,0,0,0,0.00
2013-3-6,72,60,48,39,25,3,54,28,1,29.76,29.54,8,1,8,0.00
2013-3-7,73,53,38,46,28,-8,57,41,1,29.84,29.75,4,1,4,0.00
2013-3-8,80,56,38,48,16,-14,52,20,1,29.85,29.74,6,0,6,0.00
2013-3-9,78,58,41,53,19,-11,51,21,1,29.86,29.77,8,1,8,0.00
2013-3-10,79,64,50,56,22,-5,47,19,1,29.82,29.72,8,1,8,0.00
2013-3-11,80,64,50,55,16,-5,42,12,1,29.76,29.56,2,0,2,0.00
2013-3-12,72,66,58,13,8,2,1,1,1,29.64,29.50,4,1,4,0.39
2013-3-13,81,61,46,44,18,-7,49,18,1,29.79,29.65,5,1,5,0.00
2013-3-14,71,54,43,42,21,-10,51,29,1,29.89,29.78,7,1,7,0.00
2013-3-15,78,54,35,46,16,-16,51,22,1,29.91,29.77,4,0,4,0.00
2013-3-16,85,60,40,49,21,-12,52,22,1,29.81,29.67,4,0,4,0.00
2013-3-17,79,62,44,55,22,-10,50,22,1,29.78,29.62,4,0,4,0.00
2013-3-18,81,70,60,56,20,3,42,12,1,29.70,29.54,7,1,7,0.00
2013-3-19,90,73,62,63,26,5,47,15,1,29.66,29.52,5,1,5,0.00
2013-3-20,75,66,60,15,8,3,1,1,1,29.61,29.42,8,1,8,1.82
2013-3-21,76,59,48,43,16,-6,49,17,1,29.60,29.49,5,1,5,0.00
2013-3-22,80,58,41,56,14,-12,48,15,1,29.65,29.53,4,0,4,0.09
2013-3-23,86,71,61,23,12,4,2,1,1,29.62,29.40,6,1,6,0.25
2013-3-24,82,72,67,20,13,9,1,1,1,29.49,29.25,10,2,10,1.13
2013-3-25,75,66,54,41,25,1,50,22,1,29.66,29.34,5,2,5,0.00
2013-3-26,64,54,45,36,30,26,54,42,25,29.86,29.65,7,2,7,0.00
2013-3-27,71,52,40,36,24,-10,51,36,1,29.93,29.82,6,1,6,0.00
2013-3-28,77,54,35,43,14,-16,50,20,1,29.92,29.80,3,0,3,0.00
2013-3-29,81,58,39,44,18,-13,50,21,1,29.95,29.82,4,0,4,0.00
2013-3-30,83,62,42,52,25,-11,49,24,1,29.89,29.74,5,0,5,0.00
2013-3-31,85,68,55,57,28,0,48,23,1,29.81,29.62,6,1,6,0.00
2013-4-1,88,71,56,62,26,0,47,18,1,29.66,29.54,8,1,8,0.00
2013-4-2,86,70,58,57,25,2,47,17,1,29.72,29.63,8,1,8,0.00
2013-4-3,84,69,55,55,19,0,43,11,1,29.73,29.60,2,0,2,0.39
2013-4-4,74,70,65,14,11,7,1,1,1,29.66,29.48,4,0,4,0.24
2013-4-5,76,67,56,16,8,0,1,1,1,29.62,29.43,6,1,6,0.09
2013-4-6,80,65,53,52,15,-2,39,10,1,29.77,29.61,8,2,8,0.02
2013-4-7,80,67,56,51,14,0,38,8,1,29.79,29.69,5,1,5,0.00
2013-4-8,87,69,55,60,21,0,41,13,1,29.77,29.69,7,0,7,0.00
2013-4-9,87,71,58,60,23,2,43,14,1,29.81,29.71,3,0,3,0.00
2013-4-10,89,72,56,59,20,0,36,9,1,29.77,29.63,8,0,8,0.00
2013-4-11,89,78,71,29,17,12,12,1,1,29.64,29.47,4,0,4,0.00
2013-4-12,86,77,71,23,17,12,1,1,1,29.54,29.44,8,1,8,0.00
2013-4-13,87,75,63,54,17,6,34,3,1,29.63,29.51,4,0,4,0.00
2013-4-14,85,73,62,22,13,5,1,1,1,29.63,29.47,4,0,4,4.59
2013-4-15,93,77,66,61,23,8,35,9,1,29.71,29.59,4,0,4,0.00
2013-4-16,87,76,68,24,15,9,6,1,1,29.80,29.69,8,2,8,0.00
2013-4-17,82,71,64,20,12,7,1,1,1,29.79,29.70,5,1,5,0.00
2013-4-18,90,76,64,57,21,7,33,7,1,29.71,29.59,3,0,3,0.00
2013-4-19,93,78,72,58,19,12,31,4,1,29.66,29.53,6,1,6,0.58
2013-4-20,74,66,58,14,8,2,1,1,1,29.79,29.59,5,1,5,0.03
2013-4-21,80,69,58,19,10,2,1,1,1,29.77,29.66,4,0,4,2.34
2013-4-22,79,70,66,18,11,8,1,1,1,29.71,29.63,4,1,4,0.56
2013-4-23,85,72,62,53,18,4,34,8,1,29.76,29.64,7,2,7,0.00
2013-4-24,90,70,54,57,18,-2,34,8,1,29.78,29.70,5,1,5,0.00
2013-4-25,94,73,57,63,22,1,38,10,1,29.84,29.74,4,0,4,0.00
2013-4-26,92,74,60,60,22,3,39,9,1,29.87,29.79,7,1,7,0.00
2013-4-27,88,73,62,55,20,4,34,8,1,29.87,29.75,8,1,8,0.00
2013-4-28,86,72,63,43,13,6,23,2,1,29.78,29.64,2,0,2,0.00
2013-4-29,90,74,62,57,22,5,33,9,1,29.67,29.54,5,0,5,1.45
2013-4-30,92,75,68,50,16,10,25,3,1,29.65,29.54,4,0,4,0.88
2013-5-1,76,72,69,16,13,10,1,1,1,29.66,29.58,4,0,4,0.40
2013-5-2,74,71,67,14,12,9,1,1,1,29.60,29.46,2,0,2,3.68
2013-5-3,78,72,68,17,12,10,1,1,1,29.48,29.31,15,2,15,1.45
2013-5-4,87,74,69,24,14,10,5,1,1,29.41,29.30,2,0,2,0.15
2013-5-5,85,71,60,51,27,3,45,18,1,29.56,29.38,5,1,5,0.00
2013-5-6,83,68,58,51,24,2,45,17,1,29.63,29.51,6,1,6,0.00
2013-5-7,81,67,50,50,21,-4,39,15,1,29.68,29.58,3,1,3,0.00
2013-5-8,88,70,55,55,24,0,41,15,1,29.76,29.65,4,1,4,0.00
2013-5-9,91,71,56,58,19,0,37,9,1,29.78,29.70,3,0,3,0.00
2013-5-10,89,75,61,40,16,4,19,3,1,29.77,29.62,3,0,3,0.00
2013-5-11,91,78,66,34,18,8,15,3,1,29.69,29.59,4,1,4,0.00
2013-5-12,90,78,65,48,23,7,26,8,1,29.67,29.56,4,1,4,0.00
2013-5-13,84,73,64,52,23,6,40,13,1,29.76,29.62,6,1,6,0.00
2013-5-14,83,68,52,54,25,-3,44,18,1,29.84,29.76,4,0,4,0.00
2013-5-15,85,71,54,53,26,-1,41,17,1,29.85,29.73,3,0,3,0.00
2013-5-16,86,73,59,48,21,2,33,10,1,29.77,29.66,8,1,8,0.00
2013-5-17,86,74,60,42,17,3,22,6,1,29.74,29.67,6,0,6,0.00
2013-5-18,89,76,63,39,17,6,18,4,1,29.76,29.65,4,0,4,0.00
2013-5-19,88,77,70,24,16,11,1,1,1,29.72,29.64,3,0,3,0.00
2013-5-20,89,75,68,25,15,10,1,1,1,29.72,29.62,6,0,6,0.69
2013-5-21,77,72,70,16,13,11,1,1,1,29.68,29.59,2,0,2,0.85
2013-5-22,85,75,68,22,14,10,1,1,1,29.61,29.55,3,0,3,0.09
2013-5-23,89,75,68,26,15,10,1,1,1,29.63,29.54,6,0,6,0.68
2013-5-24,92,79,68,58,22,9,32,6,1,29.72,29.59,4,1,4,0.00
2013-5-25,87,76,64,44,21,7,26,7,1,29.84,29.71,9,2,9,0.00
2013-5-26,86,72,56,49,20,0,31,10,1,29.86,29.79,5,1,5,0.00
2013-5-27,86,73,60,36,17,4,18,6,1,29.82,29.75,9,1,9,0.00
2013-5-28,87,76,63,24,16,6,1,1,1,29.79,29.72,7,1,7,0.00
2013-5-29,85,77,68,23,16,10,1,1,1,29.77,29.70,5,1,5,0.00
2013-5-30,84,75,71,22,15,12,1,1,1,29.77,29.69,6,1,6,0.79
2013-5-31,83,75,69,21,15,10,1,1,1,29.75,29.68,4,1,4,0.10
2013-6-1,85,77,71,22,16,12,1,1,1,29.72,29.62,7,1,7,1.09
2013-6-2,90,78,73,26,17,14,1,1,1,29.66,29.52,2,0,2,0.97
2013-6-3,87,78,73,24,18,14,1,1,1,29.64,29.51,2,0,2,0.02
2013-6-4,89,78,72,26,17,12,1,1,1,29.68,29.57,3,0,3,0.85
2013-6-5,80,75,72,18,15,12,1,1,1,29.66,29.55,2,0,2,3.81
2013-6-6,80,76,75,18,16,15,1,1,1,29.55,29.29,4,0,4,2.12
2013-6-7,89,79,72,25,18,13,1,1,1,29.57,29.38,0,0,0,0.00
2013-6-8,89,76,72,25,16,12,1,1,1,29.74,29.57,0,0,0,1.61
2013-6-9,86,78,71,23,17,12,1,1,1,29.74,29.66,0,0,0,0.00
2013-6-10,91,79,72,27,18,12,1,1,1,29.74,29.64,0,0,0,0.21
2013-6-11,89,76,72,26,16,13,1,1,1,29.74,29.65,0,0,0,3.16
2013-6-12,93,81,72,28,19,12,1,1,1,29.72,29.61,0,0,0,0.00
2013-6-13,95,83,72,30,21,13,2,1,1,29.66,29.51,0,0,0,0.00
2013-6-14,92,83,74,28,21,14,5,1,1,29.56,29.47,0,0,0,0.00
2013-6-15,88,80,74,25,19,14,1,1,1,29.71,29.54,0,0,0,0.00
2013-6-16,89,79,74,25,18,14,1,1,1,29.73,29.67,0,0,0,2.73
2013-6-17,86,79,72,24,18,12,1,1,1,29.72,29.60,0,0,0,3.81
2013-6-18,92,80,72,28,19,13,1,1,1,29.69,29.58,0,0,0,2.12
2013-6-19,93,82,73,28,20,13,1,1,1,29.67,29.59,0,0,0,0.04
2013-6-20,91,79,72,27,18,13,1,1,1,29.72,29.64,0,0,0,0.42
2013-6-21,90,78,71,26,17,12,1,1,1,29.75,29.67,0,0,0,0.02
2013-6-22,89,82,75,25,20,15,1,1,1,29.75,29.69,0,0,0,0.00
2013-6-23,86,78,71,23,17,11,1,1,1,29.79,29.71,0,0,0,0.00
2013-6-24,90,80,71,26,19,12,1,1,1,29.82,29.72,0,0,0,0.00
2013-6-25,91,80,70,27,19,11,1,1,1,29.80,29.68,0,0,0,0.02
2013-6-26,92,80,72,28,19,13,1,1,1,29.71,29.64,0,0,0,0.00
2013-6-27,95,81,69,30,20,10,1,1,1,29.68,29.55,0,0,0,0.00
2013-6-28,95,80,73,30,18,13,1,1,1,29.59,29.48,0,0,0,0.63
2013-6-29,90,80,73,26,19,13,1,1,1,29.52,29.42,0,0,0,0.30
2013-6-30,90,76,73,26,16,13,1,1,1,29.53,29.45,0,0,0,2.42
2013-7-1,86,76,73,23,16,13,1,1,1,29.66,29.51,0,0,0,0.70
2013-7-2,81,76,74,19,15,14,1,1,1,29.74,29.62,0,0,0,0.30
2013-7-3,84,77,73,21,17,13,1,1,1,29.77,29.69,0,0,0,0.48
2013-7-4,88,78,73,25,18,13,1,1,1,29.79,29.71,0,0,0,0.00
2013-7-5,89,79,73,25,18,13,1,1,1,29.80,29.70,0,0,0,0.39
2013-7-6,90,81,72,27,19,13,1,1,1,29.76,29.69,0,0,0,0.00
2013-7-7,90,81,73,26,20,13,1,1,1,29.77,29.68,0,0,0,0.00
2013-7-8,92,81,72,28,20,13,1,1,1,29.80,29.72,0,0,0,0.00
2013-7-9,91,80,70,27,19,11,1,1,1,29.80,29.71,0,0,0,0.00
2013-7-10,91,80,71,27,19,12,1,1,1,29.73,29.60,0,0,0,0.04
2013-7-11,91,81,71,27,19,12,1,1,1,29.67,29.55,0,0,0,0.00
2013-7-12,90,80,72,26,18,12,1,1,1,29.59,29.53,0,0,0,0.00
2013-7-13,91,79,72,27,18,12,1,1,1,29.63,29.54,0,0,0,0.02
2013-7-14,88,77,71,24,16,11,1,1,1,29.74,29.61,0,0,0,0.00
2013-7-15,90,78,68,26,17,10,1,1,1,29.76,29.67,0,0,0,0.13
2013-7-16,89,78,72,26,18,12,1,1,1,29.80,29.74,0,0,0,0.59
2013-7-17,89,79,73,26,18,13,1,1,1,29.80,29.72,0,0,0,1.13
2013-7-18,84,76,73,21,16,13,1,1,1,29.77,29.68,0,0,0,0.60
2013-7-19,90,77,72,26,17,13,1,1,1,29.77,29.67,0,0,0,3.08
2013-7-20,90,78,74,26,17,14,1,1,1,29.74,29.64,0,0,0,0.04
2013-7-21,90,78,73,26,17,14,1,1,1,29.75,29.65,0,0,0,0.08
2013-7-22,93,80,74,29,18,14,1,1,1,29.75,29.69,0,0,0,0.00
2013-7-23,83,76,73,21,15,13,1,1,1,29.72,29.58,0,0,0,0.00
2013-7-24,84,78,74,22,17,14,1,1,1,29.62,29.51,0,0,0,0.00
2013-7-25,88,80,73,25,18,13,1,1,1,29.60,29.49,0,0,0,0.00
2013-7-26,92,82,74,28,20,14,1,1,1,29.63,29.57,0,0,0,0.03
2013-7-27,92,81,73,28,19,14,1,1,1,29.62,29.53,0,0,0,0.00
2013-7-28,90,77,71,26,16,11,1,1,1,29.69,29.56,0,0,0,0.00
2013-7-29,91,79,71,27,18,12,1,1,1,29.78,29.66,0,0,0,0.00
2013-7-30,92,82,73,28,20,14,1,1,1,29.81,29.71,0,0,0,0.00
2013-7-31,90,82,73,27,20,14,1,1,1,29.77,29.64,0,0,0,0.00
2013-8-1,93,78,72,28,17,12,1,1,1,29.70,29.59,0,0,0,0.00
2013-8-2,92,81,72,28,20,13,1,1,1,29.67,29.57,0,0,0,0.00
2013-8-3,93,80,74,29,18,14,1,1,1,29.72,29.62,0,0,0,0.00
2013-8-4,92,81,74,28,19,14,1,1,1,29.71,29.61,0,0,0,0.00
2013-8-5,93,82,74,29,20,14,1,1,1,29.64,29.54,0,0,0,0.00
2013-8-6,93,82,72,29,20,13,1,1,1,29.60,29.53,0,0,0,0.00
2013-8-7,92,82,74,28,20,14,1,1,1,29.62,29.55,0,0,0,0.00
2013-8-8,92,82,74,28,20,14,1,1,1,29.68,29.59,0,0,0,0.00
2013-8-9,93,81,72,28,20,13,1,1,1,29.71,29.61,0,0,0,0.00
2013-8-10,94,82,70,29,20,11,1,1,1,29.76,29.67,0,0,0,0.00
2013-8-11,94,82,72,30,20,12,1,1,1,29.79,29.70,0,0,0,0.00
2013-8-12,94,82,72,30,20,12,1,1,1,29.76,29.63,0,0,0,0.00
2013-8-13,96,85,72,31,22,13,1,1,1,29.69,29.55,0,0,0,0.00
2013-8-14,95,81,74,30,19,14,1,1,1,29.65,29.54,0,0,0,0.00
2013-8-15,94,83,73,30,21,13,1,1,1,29.67,29.54,0,0,0,0.00
2013-8-16,92,80,74,28,19,14,1,1,1,29.69,29.58,0,0,0,0.00
2013-8-17,76,75,74,16,15,14,1,1,1,29.69,29.64,0,0,0,0.00
2013-8-18,91,87,78,27,24,17,1,1,1,29.74,29.65,0,0,0,0.00
2013-8-19,94,78,73,29,17,13,1,1,1,29.72,29.61,0,0,0,0.00
2013-8-20,94,82,73,29,20,14,1,1,1,29.73,29.64,0,0,0,0.00
2013-8-21,92,79,74,28,18,14,1,1,1,29.75,29.68,0,0,0,0.00
2013-8-22,86,78,74,23,17,14,1,1,1,29.73,29.62,0,0,0,0.00
2013-8-23,94,79,74,29,18,14,1,1,1,29.66,29.60,0,0,0,0.00
2013-8-24,89,78,73,25,17,14,1,1,1,29.74,29.64,0,0,0,0.00
2013-8-25,85,78,74,22,17,14,1,1,1,29.79,29.72,0,0,0,0.00
2013-8-26,90,80,73,26,18,13,1,1,1,29.78,29.66,0,0,0,0.00
2013-8-27,91,80,71,27,19,12,1,1,1,29.71,29.63,0,0,0,0.00
2013-8-28,88,80,72,24,19,13,1,1,1,29.67,29.61,0,0,0,0.00
2013-8-29,95,80,70,30,18,10,1,1,1,29.67,29.55,0,0,0,0.00
2013-8-30,96,82,72,31,20,12,1,1,1,29.62,29.51,0,0,0,0.00
2013-8-31,95,83,72,30,21,12,1,1,1,29.61,29.50,0,0,0,0.00
2013-9-1,93,79,72,29,18,12,1,1,1,29.63,29.52,0,0,0,0.00
2013-9-2,94,80,72,29,19,12,1,1,1,29.64,29.55,0,0,0,0.00
2013-9-3,94,81,72,29,20,12,1,1,1,29.65,29.54,0,0,0,0.00
2013-9-4,92,78,72,28,17,13,1,1,1,29.72,29.61,0,0,0,0.00
2013-9-5,92,79,71,28,18,12,1,1,1,29.73,29.64,0,0,0,0.00
2013-9-6,94,77,72,30,16,12,1,1,1,29.69,29.61,0,0,0,0.00
2013-9-7,92,80,72,28,18,13,1,1,1,29.65,29.56,0,0,0,0.00
2013-9-8,93,80,70,29,19,11,1,1,1,29.61,29.52,0,0,0,0.00
2013-9-9,93,81,69,29,19,10,1,1,1,29.68,29.57,0,0,0,0.00
2013-9-10,92,80,71,28,18,12,1,1,1,29.74,29.64,0,0,0,0.00
2013-9-11,94,80,72,29,19,13,1,1,1,29.72,29.64,0,0,0,0.00
2013-9-12,89,78,71,26,17,12,1,1,1,29.66,29.53,0,0,0,0.00
2013-9-13,93,80,71,29,18,12,1,1,1,29.54,29.42,0,0,0,0.00
2013-9-14,95,81,73,30,20,13,1,1,1,29.62,29.46,0,0,0,0.00
2013-9-15,91,80,74,27,18,14,1,1,1,29.71,29.61,0,0,0,0.00
2013-9-16,92,80,72,28,19,12,1,1,1,29.72,29.62,0,0,0,0.00
2013-9-17,91,79,71,27,18,12,1,1,1,29.71,29.60,0,0,0,0.00
2013-9-18,88,78,73,25,18,13,1,1,1,29.68,29.61,0,0,0,0.00
2013-9-19,90,77,71,27,16,11,1,1,1,29.69,29.62,0,0,0,0.00
2013-9-20,88,76,67,25,16,9,1,1,1,29.67,29.55,0,0,0,0.00
2013-9-21,91,78,67,27,17,8,1,1,1,29.59,29.40,0,0,0,0.00
2013-9-22,92,78,71,28,17,12,1,1,1,29.49,29.38,0,0,0,0.00
2013-9-23,81,76,73,19,15,13,1,1,1,29.60,29.48,0,0,0,0.00
2013-9-24,82,77,73,20,16,14,1,1,1,29.59,29.47,0,0,0,0.00
2013-9-25,82,76,73,20,16,13,1,1,1,29.48,29.41,0,0,0,0.00
2013-9-26,92,80,73,28,19,13,1,1,1,29.51,29.40,0,0,0,0.00
2013-9-27,79,73,69,18,13,10,1,1,1,29.59,29.48,0,0,0,0.00
2013-9-28,81,74,70,19,14,11,1,1,1,29.66,29.55,0,0,0,0.00
2013-9-29,89,75,68,25,15,9,1,1,1,29.63,29.54,0,0,0,0.00
2013-9-30,91,76,66,27,16,8,1,1,1,29.65,29.55,0,0,0,0.00
2013-10-1,89,77,70,26,16,11,1,1,1,29.70,29.62,0,0,0,0.00
2013-10-2,90,76,67,26,16,8,1,1,1,29.71,29.64,0,0,0,0.00
2013-10-3,89,76,66,26,16,8,1,1,1,29.71,29.62,0,0,0,0.00
2013-10-4,91,78,68,27,17,9,1,1,1,29.72,29.63,0,0,0,0.00
2013-10-5,90,78,67,26,17,9,1,1,1,29.70,29.60,0,0,0,0.00
2013-10-6,91,76,70,27,16,10,1,1,1,29.62,29.50,0,0,0,0.00
2013-10-7,80,74,71,19,14,12,1,1,1,29.52,29.38,0,0,0,0.00
2013-10-8,88,77,73,25,16,13,1,1,1,29.58,29.40,0,0,0,0.00
2013-10-9,82,73,66,20,13,8,1,1,1,29.67,29.56,0,0,0,0.00
2013-10-10,86,72,64,23,13,6,1,1,1,29.69,29.60,0,0,0,0.00
2013-10-11,87,72,60,24,13,4,1,1,1,29.68,29.57,0,0,0,0.00
2013-10-12,87,74,63,24,14,6,1,1,1,29.67,29.59,0,0,0,0.00
2013-10-13,87,73,61,24,13,4,1,1,1,29.72,29.62,0,0,0,0.00
2013-10-14,88,74,65,24,14,7,1,1,1,29.67,29.57,0,0,0,0.00
2013-10-15,81,72,67,20,13,8,1,1,1,29.63,29.53,0,0,0,0.00
2013-10-16,87,76,68,24,15,9,1,1,1,29.61,29.53,0,0,0,0.00
2013-10-17,91,75,68,27,15,10,1,1,1,29.62,29.53,0,0,0,0.00
2013-10-18,91,76,67,27,16,9,1,1,1,29.62,29.53,0,0,0,0.00
2013-10-19,91,78,68,27,17,10,1,1,1,29.59,29.49,0,0,0,0.00
2013-10-20,86,77,72,23,16,12,1,1,1,29.60,29.49,0,0,0,0.00
2013-10-21,89,76,70,25,16,11,1,1,1,29.63,29.54,0,0,0,0.00
2013-10-22,91,79,71,27,18,12,1,1,1,29.59,29.43,0,0,0,0.00
2013-10-23,85,75,65,22,14,7,1,1,1,29.63,29.43,0,0,0,0.00
2013-10-24,73,65,59,13,8,2,1,1,1,29.79,29.64,0,0,0,0.00
2013-10-25,79,66,53,18,8,-2,1,1,1,29.87,29.78,0,0,0,0.00
2013-10-26,79,66,53,18,8,-2,1,1,1,29.85,29.72,0,0,0,0.00
2013-10-27,78,64,51,17,6,-4,1,1,1,29.77,29.69,0,0,0,0.00
2013-10-28,80,66,51,19,8,-4,1,1,1,29.82,29.73,0,0,0,0.00
2013-10-29,82,68,57,20,10,1,1,1,1,29.85,29.78,0,0,0,0.00
2013-10-30,81,70,61,19,11,4,1,1,1,29.86,29.75,0,0,0,0.00
2013-10-31,83,71,61,21,12,4,1,1,1,29.77,29.62,0,0,0,0.00
2013-11-1,89,75,66,26,15,8,1,1,1,29.64,29.49,0,0,0,0.00
2013-11-2,72,67,61,13,9,4,1,1,1,29.59,29.44,0,0,0,0.00
2013-11-3,75,64,54,15,7,-1,1,1,1,29.74,29.58,0,0,0,0.00
2013-11-4,76,68,58,15,9,2,1,1,1,29.80,29.72,0,0,0,0.00
2013-11-5,82,72,64,20,12,6,1,1,1,29.80,29.73,0,0,0,0.00
2013-11-6,79,70,66,18,11,8,1,1,1,29.76,29.67,0,0,0,0.00
2013-11-7,80,71,65,18,12,7,1,1,1,29.68,29.58,0,0,0,0.00
2013-11-8,77,68,63,16,10,6,1,1,1,29.75,29.62,0,0,0,0.00
2013-11-9,79,67,58,18,9,2,1,1,1,29.81,29.73,0,0,0,0.00
2013-11-10,80,69,59,18,10,3,1,1,1,29.80,29.72,0,0,0,0.00
2013-11-11,80,69,63,19,10,5,1,1,1,29.79,29.70,0,0,0,0.00
2013-11-12,78,68,59,17,9,3,1,1,1,29.74,29.63,0,0,0,0.00
2013-11-13,66,63,59,8,6,2,1,1,1,29.94,29.70,0,0,0,0.00
2013-11-14,75,64,55,15,6,-1,1,1,1,29.93,29.81,0,0,0,0.00
2013-11-15,73,64,56,13,6,0,1,1,1,29.82,29.71,0,0,0,0.00
2013-11-16,73,69,65,13,10,7,1,1,1,29.77,29.66,0,0,0,0.00
2013-11-17,81,73,68,19,13,9,1,1,1,29.72,29.61,0,0,0,0.00
2013-11-18,82,73,69,20,14,10,1,1,1,29.65,29.53,0,0,0,0.00
2013-11-19,77,71,64,17,11,6,1,1,1,29.61,29.51,0,0,0,0.00
2013-11-20,77,69,63,16,10,6,1,1,1,29.74,29.59,0,0,0,0.00
2013-11-21,75,71,69,15,12,10,1,1,1,29.82,29.72,0,0,0,0.00
2013-11-22,78,71,66,17,12,8,1,1,1,29.83,29.74,0,0,0,0.00
2013-11-23,82,69,62,20,10,5,1,1,1,29.74,29.62,0,0,0,0.00
2013-11-24,69,65,63,10,7,5,1,1,1,29.87,29.65,0,0,0,0.00
2013-11-25,74,67,61,14,9,4,1,1,1,29.88,29.73,0,0,0,0.00
2013-11-26,79,71,63,18,12,6,1,1,1,29.71,29.38,0,0,0,0.00
2013-11-27,72,64,46,13,6,-7,1,1,1,29.82,29.31,0,0,0,0.00
2013-11-28,66,52,40,8,-3,-12,1,1,1,29.96,29.82,0,0,0,0.00
2013-11-29,70,58,49,11,2,-5,1,1,1,29.99,29.91,0,0,0,0.00
2013-11-30,75,64,56,15,6,0,1,1,1,29.93,29.82,0,0,0,0.00
2013-12-1,73,65,62,13,7,4,1,1,1,29.81,29.60,0,0,0,0.00
2013-12-2,75,64,55,15,6,0,1,1,1,29.60,29.43,0,0,0,0.00
2013-12-3,78,62,52,17,5,-3,1,1,1,29.62,29.51,0,0,0,0.00
2013-12-4,79,66,57,18,8,1,1,1,1,29.71,29.59,0,0,0,0.00
2013-12-5,80,68,59,19,9,2,1,1,1,29.80,29.71,0,0,0,0.00
2013-12-6,83,69,62,21,10,4,1,1,1,29.81,29.71,0,0,0,0.00
2013-12-7,83,70,62,21,11,5,1,1,1,29.86,29.76,0,0,0,0.00
2013-12-8,81,68,60,20,10,3,1,1,1,29.86,29.73,0,0,0,0.00
2013-12-9,82,69,62,20,10,5,1,1,1,29.81,29.71,0,0,0,0.00
2013-12-10,82,71,60,20,12,3,1,1,1,29.82,29.68,0,0,0,0.00
2013-12-11,80,68,58,19,9,2,1,1,1,29.87,29.77,0,0,0,0.00
2013-12-12,71,62,55,26,9,0,28,7,1,29.95,29.82,0,0,0,0.00
2013-12-13,74,58,46,14,2,-8,1,1,1,29.89,29.76,0,0,0,0.00
2013-12-14,80,66,55,19,8,0,1,1,1,29.75,29.56,0,0,0,0.00
2013-12-15,71,67,58,12,8,2,1,1,1,29.74,29.50,0,0,0,0.00
2013-12-16,66,56,48,8,0,-6,1,1,1,29.85,29.74,0,0,0,0.00
2013-12-17,70,53,41,11,-2,-12,1,1,1,29.87,29.77,0,0,0,0.00
2013-12-18,69,51,40,10,-3,-12,1,1,1,29.90,29.81,0,0,0,0.00
2013-12-19,74,54,40,14,-1,-12,1,1,1,29.90,29.80,0,0,0,0.00
2013-12-20,78,60,47,17,3,-7,1,1,1,29.84,29.73,0,0,0,0.00
2013-12-21,82,68,58,20,10,2,1,1,1,29.78,29.67,0,0,0,0.00
2013-12-22,82,70,63,20,11,6,1,1,1,29.77,29.70,0,0,0,0.00
2013-12-23,85,71,64,22,12,6,1,1,1,29.80,29.69,0,0,0,0.00
2013-12-24,72,64,54,20,8,-1,21,3,1,29.88,29.71,0,0,0,0.00
2013-12-25,72,57,45,57,17,-8,94,27,1,30.22,29.78,1,0,3,0.00
2013-12-26,74,62,55,64,58,54,98,88,69,30.25,30.12,11,1,12,0.00
2013-12-27,70,64,59,65,61,57,97,91,82,30.28,30.19,11,1,11,0.00
2013-12-28,75,69,64,72,68,63,99,95,84,30.24,30.03,6,0,6,0.19
2013-12-29,79,72,66,73,70,65,99,95,80,30.03,29.89,7,0,7,0.24
2013-12-30,68,62,56,65,59,53,99,90,61,30.21,29.99,4,0,4,0.01
2013-12-31,70,60,55,55,53,49,99,79,52,30.33,30.18,8,0,8,0.00
2014-1-1,65,61,58,64,60,55,99,94,86,30.28,30.08,7,0,7,0.06
2014-1-2,81,68,58,72,66,54,100,95,73,30.08,29.81,13,1,15,0.36